createdAt,value
2023-02-15T00:00:13.594Z,8.00
2023-02-15T00:02:42.739Z,8.00
2023-02-15T00:05:10.154Z,8.00
2023-02-15T00:07:37.125Z,8.00
2023-02-15T00:10:05.254Z,7.90
2023-02-15T00:12:33.168Z,7.90
2023-02-15T00:15:02.088Z,8.00
2023-02-15T00:17:30.701Z,7.90
2023-02-15T00:19:57.478Z,7.90
2023-02-15T00:22:29.792Z,7.90
2023-02-15T00:24:56.629Z,7.90
2023-02-15T00:27:23.592Z,7.90
2023-02-15T00:29:50.548Z,7.90
2023-02-15T00:32:17.494Z,7.90
2023-02-15T00:34:44.454Z,7.80
2023-02-15T00:37:11.281Z,7.80
2023-02-15T00:39:39.195Z,7.90
2023-02-15T00:42:06.479Z,7.80
2023-02-15T00:44:33.308Z,7.80
2023-02-15T00:47:00.412Z,7.90
2023-02-15T00:49:27.245Z,7.80
2023-02-15T00:51:54.519Z,7.80
2023-02-15T00:54:21.658Z,7.80
2023-02-15T00:56:49.823Z,7.90
2023-02-15T00:59:16.671Z,7.80
2023-02-15T01:01:43.587Z,7.80
2023-02-15T01:04:16.179Z,7.80
2023-02-15T01:06:43.086Z,7.80
2023-02-15T01:09:13.583Z,7.80
2023-02-15T01:11:40.452Z,7.70
2023-02-15T01:14:10.021Z,7.60
2023-02-15T01:16:39.510Z,7.60
2023-02-15T01:19:07.233Z,7.60
2023-02-15T01:21:35.552Z,7.60
2023-02-15T01:24:03.490Z,7.60
2023-02-15T01:26:31.954Z,7.50
2023-02-15T01:28:59.331Z,7.50
2023-02-15T01:31:28.277Z,7.50
2023-02-15T01:33:55.190Z,7.50
2023-02-15T01:36:23.044Z,7.50
2023-02-15T01:38:50.427Z,7.40
2023-02-15T01:41:27.422Z,7.20
2023-02-15T01:44:02.855Z,7.20
2023-02-15T01:46:40.960Z,7.20
2023-02-15T01:49:18.477Z,7.20
2023-02-15T01:51:49.593Z,7.30
2023-02-15T01:54:28.758Z,7.30
2023-02-15T01:57:03.497Z,7.30
2023-02-15T01:59:34.836Z,7.20
2023-02-15T02:02:06.116Z,7.20
2023-02-15T02:04:40.731Z,7.20
2023-02-15T02:07:10.521Z,7.10
2023-02-15T02:09:38.999Z,7.10
2023-02-15T02:12:06.592Z,7.10
2023-02-15T02:14:34.064Z,7.20
2023-02-15T02:17:40.547Z,7.30
2023-02-15T02:20:38.218Z,7.20
2023-02-15T02:23:42.069Z,7.10
2023-02-15T02:26:31.711Z,7.10
2023-02-15T02:29:07.957Z,7.10
2023-02-15T02:32:13.130Z,7.10
2023-02-15T02:34:52.196Z,7.00
2023-02-15T02:37:31.450Z,7.00
2023-02-15T02:40:17.938Z,7.00
2023-02-15T02:43:12.290Z,7.00
2023-02-15T02:45:46.779Z,6.90
2023-02-15T02:48:21.088Z,6.90
2023-02-15T02:50:49.828Z,6.80
2023-02-15T02:53:17.007Z,6.80
2023-02-15T02:56:15.075Z,6.80
2023-02-15T02:59:00.303Z,6.90
2023-02-15T03:01:38.984Z,6.80
2023-02-15T03:04:13.735Z,6.80
2023-02-15T03:06:58.552Z,6.80
2023-02-15T03:09:45.025Z,6.80
2023-02-15T03:12:25.272Z,6.80
2023-02-15T03:15:10.093Z,6.80
2023-02-15T03:17:43.704Z,6.70
2023-02-15T03:20:33.352Z,6.40
2023-02-15T03:23:12.367Z,6.40
2023-02-15T03:25:44.123Z,6.40
2023-02-15T03:28:16.180Z,6.50
2023-02-15T03:30:50.775Z,6.50
2023-02-15T03:33:19.383Z,6.50
2023-02-15T03:35:51.462Z,6.50
2023-02-15T03:38:26.611Z,6.50
2023-02-15T03:41:12.111Z,6.50
2023-02-15T03:43:44.324Z,6.50
2023-02-15T03:46:20.036Z,6.50
2023-02-15T03:48:54.527Z,6.50
2023-02-15T03:51:35.030Z,6.50
2023-02-15T03:54:13.814Z,6.30
2023-02-15T03:57:03.252Z,6.20
2023-02-15T03:59:49.990Z,6.20
2023-02-15T04:02:29.478Z,6.20
2023-02-15T04:04:56.584Z,6.10
2023-02-15T04:07:23.484Z,6.00
2023-02-15T04:10:11.164Z,6.00
2023-02-15T04:12:40.014Z,6.00
2023-02-15T04:15:31.732Z,5.90
2023-02-15T04:17:58.795Z,6.10
2023-02-15T04:20:48.162Z,6.10
2023-02-15T04:23:34.803Z,6.20
2023-02-15T04:26:08.392Z,6.20
2023-02-15T04:28:35.193Z,6.20
2023-02-15T04:31:27.159Z,6.20
2023-02-15T04:33:54.012Z,6.20
2023-02-15T04:36:21.932Z,6.10
2023-02-15T04:38:48.808Z,6.10
2023-02-15T04:41:16.656Z,6.10
2023-02-15T04:43:43.613Z,6.10
2023-02-15T04:46:10.568Z,6.20
2023-02-15T04:48:39.191Z,6.20
2023-02-15T04:51:11.737Z,6.10
2023-02-15T04:53:38.602Z,6.00
2023-02-15T04:56:05.528Z,6.00
2023-02-15T04:58:32.594Z,6.00
2023-02-15T05:01:00.681Z,6.00
2023-02-15T05:03:31.930Z,5.90
2023-02-15T05:06:00.210Z,5.90
2023-02-15T05:08:28.760Z,5.80
2023-02-15T05:10:56.689Z,5.80
2023-02-15T05:13:24.220Z,5.80
2023-02-15T05:15:53.608Z,5.80
2023-02-15T05:18:22.037Z,5.80
2023-02-15T05:20:50.551Z,5.90
2023-02-15T05:23:18.474Z,5.80
2023-02-15T05:26:10.999Z,5.90
2023-02-15T05:28:39.299Z,6.00
2023-02-15T05:31:06.376Z,6.00
2023-02-15T05:33:34.478Z,6.00
2023-02-15T05:36:03.077Z,6.00
2023-02-15T05:38:30.534Z,6.00
2023-02-15T05:40:58.769Z,5.90
2023-02-15T05:43:26.293Z,6.00
2023-02-15T05:45:56.087Z,6.00
2023-02-15T05:48:26.578Z,6.00
2023-02-15T05:51:16.938Z,6.00
2023-02-15T05:53:46.227Z,6.00
2023-02-15T05:56:13.488Z,6.00
2023-02-15T05:58:41.822Z,6.10
2023-02-15T06:01:19.803Z,6.00
2023-02-15T06:03:47.156Z,6.10
2023-02-15T06:06:16.553Z,6.10
2023-02-15T06:08:45.622Z,6.10
2023-02-15T06:11:12.540Z,6.10
2023-02-15T06:13:41.414Z,6.10
2023-02-15T06:16:09.346Z,6.10
2023-02-15T06:18:37.301Z,6.20
2023-02-15T06:21:05.279Z,6.20
2023-02-15T06:23:32.222Z,6.20
2023-02-15T06:25:59.170Z,6.20
2023-02-15T06:28:28.881Z,6.20
2023-02-15T06:30:56.100Z,6.30
2023-02-15T06:33:23.928Z,6.30
2023-02-15T06:35:50.801Z,6.20
2023-02-15T06:38:18.684Z,6.30
2023-02-15T06:40:46.620Z,6.30
2023-02-15T06:43:13.775Z,6.40
2023-02-15T06:45:42.780Z,6.40
2023-02-15T06:48:10.755Z,6.40
2023-02-15T06:50:40.052Z,6.40
2023-02-15T06:53:15.595Z,6.50
2023-02-15T06:55:44.242Z,6.50
2023-02-15T06:58:11.092Z,6.50
2023-02-15T07:00:39.891Z,6.40
2023-02-15T07:03:10.221Z,6.50
2023-02-15T07:05:45.263Z,6.40
2023-02-15T07:08:22.099Z,6.40
2023-02-15T07:10:54.388Z,6.50
2023-02-15T07:13:22.523Z,6.50
2023-02-15T07:15:50.377Z,6.40
2023-02-15T07:18:17.245Z,6.50
2023-02-15T07:20:44.117Z,6.50
2023-02-15T07:23:12.196Z,6.50
2023-02-15T07:25:39.085Z,6.60
2023-02-15T07:28:07.899Z,6.60
2023-02-15T07:30:35.392Z,6.60
2023-02-15T07:33:24.042Z,6.60
2023-02-15T07:36:00.003Z,6.60
2023-02-15T07:38:33.461Z,6.70
2023-02-15T07:41:01.814Z,6.70
2023-02-15T07:43:30.335Z,6.70
2023-02-15T07:46:07.036Z,6.70
2023-02-15T07:48:34.961Z,6.70
2023-02-15T07:51:13.697Z,6.80
2023-02-15T07:53:46.294Z,6.90
2023-02-15T07:56:15.301Z,7.00
2023-02-15T07:58:55.496Z,7.10
2023-02-15T08:01:30.329Z,7.10
2023-02-15T08:04:02.634Z,7.10
2023-02-15T08:06:34.631Z,7.20
2023-02-15T08:12:43.947Z,7.30
2023-02-15T08:15:15.144Z,7.40
2023-02-15T08:17:43.737Z,7.50
2023-02-15T08:20:17.247Z,7.60
2023-02-15T08:22:46.687Z,7.80
2023-02-15T08:25:15.245Z,7.90
2023-02-15T08:27:43.267Z,7.90
2023-02-15T08:30:13.849Z,8.00
2023-02-15T08:35:37.648Z,8.10
2023-02-15T08:38:16.918Z,8.20
2023-02-15T08:40:44.361Z,8.30
2023-02-15T08:43:13.523Z,8.40
2023-02-15T08:45:44.486Z,8.40
2023-02-15T08:48:14.009Z,8.40
2023-02-15T08:50:43.971Z,8.40
2023-02-15T08:53:12.436Z,8.40
2023-02-15T08:55:41.655Z,8.40
2023-02-15T08:58:08.792Z,8.50
2023-02-15T09:00:41.489Z,8.50
2023-02-15T09:03:15.464Z,8.50
2023-02-15T09:05:43.685Z,8.60
2023-02-15T09:08:13.142Z,8.60
2023-02-15T09:10:40.554Z,8.60
2023-02-15T09:13:30.582Z,8.70
2023-02-15T09:20:09.573Z,8.60
2023-02-15T09:23:47.151Z,8.80
2023-02-15T09:26:20.677Z,8.80
2023-02-15T09:28:52.316Z,8.90
2023-02-15T09:31:25.070Z,8.90
2023-02-15T09:33:56.509Z,9.00
2023-02-15T09:36:40.144Z,9.10
2023-02-15T09:39:17.246Z,9.20
2023-02-15T09:42:16.842Z,9.30
2023-02-15T09:45:09.883Z,9.30
2023-02-15T09:47:50.820Z,9.50
2023-02-15T09:50:27.183Z,9.50
2023-02-15T09:53:25.923Z,9.60
2023-02-15T09:56:21.204Z,9.70
2023-02-15T09:58:52.485Z,9.80
2023-02-15T10:01:48.078Z,9.90
2023-02-15T10:04:43.096Z,10.00
2023-02-15T10:07:15.874Z,10.10
2023-02-15T10:10:17.158Z,10.20
2023-02-15T10:12:55.599Z,10.40
2023-02-15T10:15:52.974Z,10.50
2023-02-15T10:18:46.333Z,10.50
2023-02-15T10:21:44.659Z,10.50
2023-02-15T10:24:14.689Z,10.50
2023-02-15T10:26:50.226Z,10.40
2023-02-15T10:29:21.129Z,10.60
2023-02-15T10:32:14.355Z,10.60
2023-02-15T10:35:09.790Z,10.70
2023-02-15T10:38:17.703Z,10.90
2023-02-15T10:41:19.006Z,11.00
2023-02-15T10:44:06.545Z,11.30
2023-02-15T10:46:47.397Z,11.50
2023-02-15T10:49:56.367Z,11.70
2023-02-15T10:52:52.965Z,11.70
2023-02-15T10:55:42.416Z,11.80
2023-02-15T10:58:48.637Z,12.00
2023-02-15T11:01:27.711Z,12.30
2023-02-15T11:04:28.329Z,12.70
2023-02-15T11:07:04.004Z,12.60
2023-02-15T11:10:13.545Z,12.50
2023-02-15T11:12:46.904Z,12.60
2023-02-15T11:15:37.802Z,12.90
2023-02-15T11:18:33.759Z,13.40
2023-02-15T11:21:25.324Z,13.90
2023-02-15T11:23:57.155Z,13.80
2023-02-15T11:26:36.857Z,13.60
2023-02-15T11:29:27.582Z,13.30
2023-02-15T11:32:04.386Z,13.00
2023-02-15T11:34:41.671Z,12.80
2023-02-15T11:37:14.377Z,13.20
2023-02-15T11:39:48.412Z,13.90
2023-02-15T11:42:24.700Z,14.90
2023-02-15T11:45:30.391Z,15.30
2023-02-15T11:48:02.182Z,15.20
2023-02-15T11:50:32.823Z,15.20
2023-02-15T11:53:05.539Z,14.70
2023-02-15T11:55:34.275Z,14.60
2023-02-15T11:58:30.773Z,14.70
2023-02-15T12:06:28.595Z,14.70
2023-02-15T12:09:23.567Z,14.60
2023-02-15T12:11:54.508Z,14.10
2023-02-15T12:14:22.217Z,13.90
2023-02-15T12:16:56.395Z,13.80
2023-02-15T12:19:51.905Z,13.50
2023-02-15T12:22:53.312Z,13.30
2023-02-15T12:25:55.712Z,13.00
2023-02-15T12:28:41.239Z,12.80
2023-02-15T12:31:40.664Z,13.00
2023-02-15T12:34:40.694Z,13.30
2023-02-15T12:37:21.492Z,13.50
2023-02-15T12:39:55.791Z,13.70
2023-02-15T12:42:24.860Z,13.80
2023-02-15T12:45:03.731Z,13.90
2023-02-15T12:47:36.959Z,14.00
2023-02-15T12:50:18.088Z,14.20
2023-02-15T12:52:50.649Z,15.00
2023-02-15T12:55:28.241Z,15.90
2023-02-15T12:58:32.423Z,16.70
2023-02-15T13:01:33.219Z,17.40
2023-02-15T13:04:07.606Z,17.30
2023-02-15T13:06:37.405Z,17.30
2023-02-15T13:09:33.541Z,16.50
2023-02-15T13:12:55.458Z,16.40
2023-02-15T13:16:15.985Z,16.20
2023-02-15T13:18:47.960Z,15.80
2023-02-15T13:21:25.097Z,15.80
2023-02-15T13:24:04.846Z,15.50
2023-02-15T13:26:33.187Z,15.70
2023-02-15T13:29:09.624Z,15.30
2023-02-15T13:31:37.505Z,14.90
2023-02-15T13:34:26.979Z,14.70
2023-02-15T13:37:12.669Z,14.90
2023-02-15T13:39:50.259Z,15.00
2023-02-15T13:42:41.402Z,15.10
2023-02-15T13:45:45.468Z,15.00
2023-02-15T13:48:46.872Z,15.00
2023-02-15T13:51:26.550Z,15.00
2023-02-15T13:54:00.009Z,14.60
2023-02-15T13:57:05.756Z,14.40
2023-02-15T13:59:57.658Z,14.20
2023-02-15T14:02:28.323Z,14.20
2023-02-15T14:05:31.183Z,14.00
2023-02-15T14:12:47.320Z,14.30
2023-02-15T14:15:22.832Z,14.50
2023-02-15T14:18:00.851Z,14.30
2023-02-15T14:21:07.062Z,14.40
2023-02-15T14:23:39.699Z,14.50
2023-02-15T14:26:38.307Z,14.30
2023-02-15T14:29:39.595Z,13.90
2023-02-15T14:32:39.674Z,13.70
2023-02-15T14:35:15.955Z,13.80
2023-02-15T14:38:00.925Z,13.90
2023-02-15T14:41:03.565Z,13.80
2023-02-15T14:43:55.177Z,13.60
2023-02-15T14:46:28.799Z,13.30
2023-02-15T14:49:08.488Z,13.20
2023-02-15T14:51:46.922Z,13.40
2023-02-15T14:54:40.581Z,13.60
2023-02-15T14:57:14.698Z,13.70
2023-02-15T15:00:00.167Z,13.40
2023-02-15T15:02:50.197Z,13.30
2023-02-15T15:05:48.745Z,13.20
2023-02-15T15:08:36.213Z,12.90
2023-02-15T15:11:43.951Z,12.90
2023-02-15T15:14:37.198Z,12.90
2023-02-15T15:17:11.620Z,12.80
2023-02-15T15:19:52.061Z,12.80
2023-02-15T15:22:30.539Z,12.80
2023-02-15T15:25:42.198Z,12.80
2023-02-15T15:28:09.659Z,12.80
2023-02-15T15:30:39.435Z,12.90
2023-02-15T15:33:47.887Z,12.80
2023-02-15T15:36:32.056Z,12.70
2023-02-15T15:39:36.761Z,12.70
2023-02-15T15:42:32.353Z,12.80
2023-02-15T15:45:23.736Z,12.70
2023-02-15T15:48:07.087Z,12.70
2023-02-15T15:51:25.493Z,12.50
2023-02-15T15:53:56.899Z,12.40
2023-02-15T15:56:34.456Z,12.30
2023-02-15T15:59:14.207Z,12.30
2023-02-15T16:01:50.444Z,12.30
2023-02-15T16:04:30.816Z,12.30
2023-02-15T16:06:59.379Z,12.40
2023-02-15T16:09:30.559Z,12.30
2023-02-15T16:12:02.632Z,12.30
2023-02-15T16:14:42.020Z,12.30
2023-02-15T16:17:18.779Z,12.20
2023-02-15T16:19:46.012Z,12.20
2023-02-15T16:22:25.360Z,12.20
2023-02-15T16:25:02.558Z,12.10
2023-02-15T16:27:33.008Z,12.10
2023-02-15T16:30:17.979Z,11.90
2023-02-15T16:32:48.005Z,11.90
2023-02-15T16:35:21.496Z,11.90
2023-02-15T16:37:52.664Z,11.90
2023-02-15T16:40:28.678Z,11.90
2023-02-15T16:43:04.680Z,11.90
2023-02-15T16:48:28.802Z,11.80
2023-02-15T16:51:01.355Z,11.80
2023-02-15T16:53:31.318Z,11.70
2023-02-15T16:56:26.793Z,11.60
2023-02-15T16:59:06.041Z,11.60
2023-02-15T17:01:36.283Z,11.50
2023-02-15T17:04:37.582Z,11.40
2023-02-15T17:07:19.952Z,11.40
2023-02-15T17:09:57.898Z,11.40
2023-02-15T17:12:56.034Z,11.40
2023-02-15T17:15:36.519Z,11.40
2023-02-15T17:18:10.116Z,11.30
2023-02-15T17:20:42.885Z,11.30
2023-02-15T17:23:36.741Z,11.20
2023-02-15T17:26:19.719Z,11.10
2023-02-15T17:28:57.165Z,11.00
2023-02-15T17:31:32.399Z,11.00
2023-02-15T17:34:04.782Z,11.00
2023-02-15T17:36:35.608Z,11.00
2023-02-15T17:39:19.021Z,10.80
2023-02-15T17:41:45.898Z,10.80
2023-02-15T17:44:16.754Z,10.70
2023-02-15T17:46:44.745Z,10.70
2023-02-15T17:49:24.562Z,10.70
2023-02-15T17:51:58.891Z,10.60
2023-02-15T17:54:46.664Z,10.50
2023-02-15T17:57:37.126Z,10.50
2023-02-15T18:00:32.763Z,10.40
2023-02-15T18:03:27.452Z,10.40
2023-02-15T18:06:14.681Z,10.40
2023-02-15T18:09:24.359Z,10.40
2023-02-15T18:11:52.326Z,10.40
2023-02-15T18:14:20.433Z,10.30
2023-02-15T18:16:47.821Z,10.30
2023-02-15T18:19:34.316Z,10.30
2023-02-15T18:22:01.215Z,10.30
2023-02-15T18:24:29.817Z,10.30
2023-02-15T18:26:58.994Z,10.30
2023-02-15T18:29:28.067Z,10.40
2023-02-15T18:31:58.622Z,10.40
2023-02-15T18:34:34.570Z,10.50
2023-02-15T18:39:57.975Z,10.40
2023-02-15T18:43:18.398Z,10.40
2023-02-15T18:45:48.944Z,10.40
2023-02-15T18:48:18.572Z,10.30
2023-02-15T18:50:52.438Z,10.30
2023-02-15T18:53:21.442Z,10.30
2023-02-15T18:55:49.826Z,10.30
2023-02-15T18:58:22.411Z,10.20
2023-02-15T19:00:51.847Z,10.20
2023-02-15T19:03:22.974Z,10.10
2023-02-15T19:08:32.223Z,10.00
2023-02-15T19:11:01.371Z,10.00
2023-02-15T19:13:29.901Z,10.00
2023-02-15T19:16:01.111Z,9.90
2023-02-15T19:18:28.543Z,9.90
2023-02-15T19:20:56.726Z,9.80
2023-02-15T19:23:28.401Z,9.80
2023-02-15T19:26:13.924Z,9.80
2023-02-15T19:28:45.333Z,9.80
2023-02-15T19:31:32.769Z,9.70
2023-02-15T19:34:17.288Z,9.60
2023-02-15T19:36:48.088Z,9.60
2023-02-15T19:39:33.704Z,9.60
2023-02-15T19:42:03.073Z,9.60
2023-02-15T19:44:33.241Z,9.60
2023-02-15T19:47:00.259Z,9.60
2023-02-15T19:49:30.317Z,9.50
2023-02-15T19:51:58.306Z,9.50
2023-02-15T19:54:36.228Z,9.40
2023-02-15T19:57:09.601Z,9.40
2023-02-15T19:59:37.000Z,9.40
2023-02-15T20:02:04.357Z,9.40
2023-02-15T20:04:31.539Z,9.30
2023-02-15T20:07:02.060Z,9.30
2023-02-15T20:09:41.024Z,9.30
2023-02-15T20:12:29.825Z,9.30
2023-02-15T20:14:58.314Z,9.30
2023-02-15T20:17:25.652Z,9.20
2023-02-15T20:19:52.698Z,9.30
2023-02-15T20:22:41.967Z,9.20
2023-02-15T20:30:17.318Z,9.20
2023-02-15T20:36:15.697Z,9.20
2023-02-15T20:39:37.906Z,9.20
2023-02-15T20:42:27.785Z,9.20
2023-02-15T20:49:05.595Z,9.10
2023-02-15T20:52:01.459Z,9.00
2023-02-15T20:54:58.984Z,9.00
2023-02-15T20:57:32.011Z,9.00
2023-02-15T21:00:19.717Z,8.90
2023-02-15T21:03:28.824Z,8.90
2023-02-15T21:06:52.527Z,9.00
2023-02-15T21:10:02.454Z,8.90
2023-02-15T21:12:43.604Z,8.90
2023-02-15T21:19:14.307Z,8.80
2023-02-15T21:22:23.756Z,8.80
2023-02-15T21:25:33.039Z,8.80
2023-02-15T21:28:54.418Z,8.80
2023-02-15T21:35:38.908Z,8.60
2023-02-15T21:38:21.894Z,8.60
2023-02-15T21:41:22.843Z,8.50
2023-02-15T21:44:18.532Z,8.50
2023-02-15T21:50:30.402Z,8.50
2023-02-15T21:53:47.571Z,8.50
2023-02-15T21:56:19.468Z,8.50
2023-02-15T21:58:48.376Z,8.50
2023-02-15T22:01:28.150Z,8.50
2023-02-15T22:03:57.709Z,8.50
2023-02-15T22:06:28.496Z,8.50
2023-02-15T22:08:55.958Z,8.50
2023-02-15T22:11:25.883Z,8.50
2023-02-15T22:13:53.658Z,8.50
2023-02-15T22:16:23.584Z,8.50
2023-02-15T22:18:50.714Z,8.50
2023-02-15T22:21:19.296Z,8.50
2023-02-15T22:23:47.312Z,8.50
2023-02-15T22:26:17.680Z,8.50
2023-02-15T22:28:45.901Z,8.60
2023-02-15T22:31:19.102Z,8.50
2023-02-15T22:33:46.052Z,8.50
2023-02-15T22:36:27.017Z,8.50
2023-02-15T22:38:56.705Z,8.50
2023-02-15T22:41:53.449Z,8.50
2023-02-15T22:44:27.118Z,8.50
2023-02-15T22:46:55.645Z,8.50
2023-02-15T22:49:23.750Z,8.50
2023-02-15T22:51:53.163Z,8.50
2023-02-15T22:54:20.396Z,8.50
2023-02-15T22:56:54.715Z,8.40
2023-02-15T22:59:28.841Z,8.40
2023-02-15T23:01:57.148Z,8.30
2023-02-15T23:04:29.227Z,8.30
2023-02-15T23:06:59.677Z,8.30
2023-02-15T23:09:27.157Z,8.30
2023-02-15T23:11:54.396Z,8.30
2023-02-15T23:14:27.497Z,8.30
2023-02-15T23:16:55.116Z,8.30
2023-02-15T23:19:22.215Z,8.30
2023-02-15T23:21:49.275Z,8.40
2023-02-15T23:24:29.595Z,8.40
2023-02-15T23:27:20.003Z,8.30
2023-02-15T23:29:49.003Z,8.30
2023-02-15T23:32:16.191Z,8.20
2023-02-15T23:34:43.478Z,8.30
2023-02-15T23:37:16.186Z,8.30
2023-02-15T23:40:03.588Z,8.30
2023-02-15T23:42:33.603Z,8.30
2023-02-15T23:45:00.870Z,8.30
2023-02-15T23:47:51.805Z,8.30
2023-02-15T23:50:25.255Z,8.20
2023-02-15T23:52:55.810Z,8.10
2023-02-15T23:55:25.197Z,8.10
2023-02-15T23:57:51.994Z,8.10
